createdAt,value
2024-05-09T00:00:40.592Z,24.70
2024-05-09T00:03:10.101Z,24.77
2024-05-09T00:05:38.598Z,23.40
2024-05-09T00:08:06.298Z,21.98
2024-05-09T00:10:37.123Z,23.33
2024-05-09T00:13:10.668Z,25.08
2024-05-09T00:15:38.238Z,23.50
2024-05-09T00:18:07.386Z,24.70
2024-05-09T00:20:39.050Z,24.50
2024-05-09T00:23:12.897Z,25.30
2024-05-09T00:25:42.923Z,23.08
2024-05-09T00:28:10.055Z,24.02
2024-05-09T00:30:37.576Z,24.45
2024-05-09T00:33:06.985Z,22.52
2024-05-09T00:35:35.487Z,22.10
2024-05-09T00:38:02.482Z,22.30
2024-05-09T00:40:41.603Z,22.95
2024-05-09T00:43:14.793Z,23.70
2024-05-09T00:45:43.160Z,23.98
2024-05-09T00:48:14.311Z,22.42
2024-05-09T00:50:44.800Z,23.23
2024-05-09T00:53:14.212Z,25.77
2024-05-09T00:55:41.826Z,26.10
2024-05-09T00:58:12.005Z,29.38
2024-05-09T01:05:10.852Z,27.20
2024-05-09T01:07:37.686Z,26.35
2024-05-09T01:10:09.028Z,28.25
2024-05-09T01:12:38.910Z,29.15
2024-05-09T01:15:06.362Z,28.50
2024-05-09T01:17:33.265Z,26.27
2024-05-09T01:20:00.233Z,28.65
2024-05-09T01:22:28.719Z,26.75
2024-05-09T01:24:55.492Z,28.27
2024-05-09T01:27:22.418Z,28.05
2024-05-09T01:29:49.178Z,28.67
2024-05-09T01:32:16.031Z,27.85
2024-05-09T01:34:42.896Z,26.30
2024-05-09T01:37:09.759Z,26.02
2024-05-09T01:39:36.511Z,27.33
2024-05-09T01:42:03.624Z,27.40
2024-05-09T01:44:30.530Z,27.63
2024-05-09T01:46:57.433Z,27.95
2024-05-09T01:49:24.362Z,27.27
2024-05-09T01:51:51.225Z,26.17
2024-05-09T01:54:18.004Z,25.73
2024-05-09T01:56:44.783Z,29.02
2024-05-09T01:59:11.805Z,27.73
2024-05-09T02:01:56.197Z,32.53
2024-05-09T02:04:24.786Z,30.92
2024-05-09T02:06:51.676Z,30.25
2024-05-09T02:09:18.456Z,30.73
2024-05-09T02:11:47.953Z,31.17
2024-05-09T02:14:18.142Z,29.02
2024-05-09T02:16:45.019Z,29.75
2024-05-09T02:19:12.092Z,29.77
2024-05-09T02:21:40.326Z,33.28
2024-05-09T02:24:07.455Z,29.60
2024-05-09T02:26:34.274Z,30.45
2024-05-09T02:29:01.089Z,31.50
2024-05-09T02:31:27.912Z,33.00
2024-05-09T02:33:54.853Z,33.03
2024-05-09T02:36:22.529Z,33.28
2024-05-09T02:38:49.284Z,34.55
2024-05-09T02:41:16.147Z,33.17
2024-05-09T02:43:42.998Z,32.90
2024-05-09T02:46:09.851Z,30.58
2024-05-09T02:48:36.763Z,35.17
2024-05-09T02:51:04.486Z,34.47
2024-05-09T02:53:31.467Z,33.88
2024-05-09T02:55:58.553Z,31.23
2024-05-09T02:58:25.414Z,32.03
2024-05-09T03:00:52.312Z,30.65
2024-05-09T03:03:19.471Z,33.15
2024-05-09T03:05:46.917Z,31.95
2024-05-09T03:08:14.252Z,32.03
2024-05-09T03:10:41.392Z,30.80
2024-05-09T03:13:15.055Z,28.30
2024-05-09T03:15:44.008Z,32.45
2024-05-09T03:18:11.573Z,33.78
2024-05-09T03:20:39.153Z,35.42
2024-05-09T03:23:09.217Z,33.05
2024-05-09T03:25:37.419Z,33.75
2024-05-09T03:28:04.615Z,33.92
2024-05-09T03:30:39.812Z,30.85
2024-05-09T03:33:18.788Z,33.22
2024-05-09T03:35:48.705Z,33.78
2024-05-09T03:38:16.252Z,33.33
2024-05-09T03:40:49.111Z,32.70
2024-05-09T03:43:17.506Z,32.90
2024-05-09T03:45:44.844Z,39.08
2024-05-09T03:48:12.125Z,33.80
2024-05-09T03:50:39.374Z,34.92
2024-05-09T03:53:10.331Z,37.13
2024-05-09T03:55:37.120Z,38.63
2024-05-09T03:58:05.244Z,41.40
2024-05-09T04:00:38.014Z,42.63
2024-05-09T04:03:09.831Z,42.95
2024-05-09T04:05:40.845Z,42.75
2024-05-09T04:08:09.521Z,40.65
2024-05-09T04:10:36.532Z,40.80
2024-05-09T04:13:04.254Z,41.75
2024-05-09T04:15:31.583Z,40.13
2024-05-09T04:17:58.765Z,39.13
2024-05-09T04:20:35.977Z,43.85
2024-05-09T04:23:07.871Z,37.47
2024-05-09T04:25:35.311Z,38.53
2024-05-09T04:28:02.317Z,37.08
2024-05-09T04:30:36.849Z,42.17
2024-05-09T04:33:08.633Z,35.67
2024-05-09T04:35:37.824Z,37.95
2024-05-09T04:38:05.533Z,40.03
2024-05-09T04:40:35.672Z,36.53
2024-05-09T04:43:05.690Z,39.35
2024-05-09T04:45:33.095Z,41.35
2024-05-09T04:48:00.390Z,37.65
2024-05-09T04:50:36.066Z,39.00
2024-05-09T04:53:08.219Z,38.63
2024-05-09T04:55:36.746Z,40.53
2024-05-09T04:58:03.760Z,37.78
2024-05-09T05:00:36.323Z,34.58
2024-05-09T05:03:13.912Z,31.98
2024-05-09T05:05:43.999Z,31.85
2024-05-09T05:08:16.488Z,30.95
2024-05-09T05:10:44.437Z,29.73
2024-05-09T05:13:24.885Z,29.33
2024-05-09T05:15:56.947Z,27.85
2024-05-09T05:18:26.496Z,29.20
2024-05-09T05:20:55.434Z,29.08
2024-05-09T05:23:23.364Z,29.30
2024-05-09T05:25:53.103Z,27.92
2024-05-09T05:28:20.688Z,27.15
2024-05-09T05:30:47.680Z,28.52
2024-05-09T05:33:16.259Z,25.02
2024-05-09T05:35:43.397Z,26.00
2024-05-09T05:38:11.143Z,26.20
2024-05-09T05:40:39.362Z,26.40
2024-05-09T05:43:09.465Z,25.98
2024-05-09T05:45:36.972Z,25.77
2024-05-09T05:48:06.091Z,25.70
2024-05-09T05:50:36.784Z,25.25
2024-05-09T05:53:09.954Z,24.30
2024-05-09T05:55:40.091Z,23.92
2024-05-09T05:58:11.902Z,23.67
2024-05-09T06:00:41.952Z,24.67
2024-05-09T06:03:10.473Z,24.90
2024-05-09T06:05:40.146Z,24.27
2024-05-09T06:08:07.908Z,24.10
2024-05-09T06:10:38.951Z,24.33
2024-05-09T06:13:13.215Z,22.80
2024-05-09T06:15:41.203Z,23.20
2024-05-09T06:18:09.983Z,23.27
2024-05-09T06:20:39.621Z,24.90
2024-05-09T06:23:07.468Z,23.95
2024-05-09T06:25:36.082Z,23.80
2024-05-09T06:28:03.348Z,25.73
2024-05-09T06:30:37.803Z,24.13
2024-05-09T06:33:10.501Z,24.15
2024-05-09T06:35:38.991Z,23.27
2024-05-09T06:38:09.020Z,22.98
2024-05-09T06:40:38.975Z,23.77
2024-05-09T06:43:18.782Z,24.27
2024-05-09T06:45:53.895Z,23.85
2024-05-09T06:48:21.937Z,25.90
2024-05-09T06:50:50.367Z,24.48
2024-05-09T06:53:20.959Z,24.60
2024-05-09T06:55:47.889Z,23.25
2024-05-09T06:58:15.044Z,24.33
2024-05-09T07:00:42.453Z,25.27
2024-05-09T07:03:17.016Z,25.27
2024-05-09T07:05:47.558Z,24.58
2024-05-09T07:08:16.001Z,24.85
2024-05-09T07:10:43.032Z,25.65
2024-05-09T07:13:14.915Z,26.20
2024-05-09T07:15:42.632Z,25.15
2024-05-09T07:18:18.288Z,25.75
2024-05-09T07:20:47.162Z,25.50
2024-05-09T07:23:15.251Z,25.40
2024-05-09T07:25:42.822Z,27.52
2024-05-09T07:28:18.087Z,25.55
2024-05-09T07:30:45.659Z,26.05
2024-05-09T07:33:22.740Z,26.17
2024-05-09T07:35:51.148Z,25.30
2024-05-09T07:38:18.035Z,24.40
2024-05-09T07:40:44.984Z,24.20
2024-05-09T07:43:12.900Z,23.45
2024-05-09T07:45:49.578Z,24.25
2024-05-09T07:53:39.297Z,23.77
2024-05-09T07:56:10.267Z,24.83
2024-05-09T07:58:38.772Z,24.85
2024-05-09T08:01:05.851Z,24.67
2024-05-09T08:03:34.237Z,23.58
2024-05-09T08:06:01.378Z,22.98
2024-05-09T08:08:28.229Z,24.80
2024-05-09T08:10:55.117Z,25.20
2024-05-09T08:13:22.140Z,25.63
2024-05-09T08:15:49.132Z,23.75
2024-05-09T08:18:17.163Z,22.65
2024-05-09T08:20:49.805Z,24.83
2024-05-09T08:23:16.589Z,24.33
2024-05-09T08:25:43.965Z,25.17
2024-05-09T08:28:12.054Z,24.27
2024-05-09T08:30:39.210Z,24.27
2024-05-09T08:33:07.465Z,24.75
2024-05-09T08:35:35.661Z,24.15
2024-05-09T08:38:03.638Z,23.45
2024-05-09T08:40:35.610Z,23.08
2024-05-09T08:43:11.698Z,22.17
2024-05-09T08:45:44.171Z,21.58
2024-05-09T08:48:14.710Z,23.52
2024-05-09T08:50:43.277Z,22.92
2024-05-09T08:53:10.335Z,23.58
2024-05-09T08:55:40.833Z,23.30
2024-05-09T08:58:20.380Z,21.90
2024-05-09T09:00:47.828Z,21.25
2024-05-09T09:03:18.586Z,22.50
2024-05-09T09:05:56.238Z,22.73
2024-05-09T09:08:23.200Z,21.50
2024-05-09T09:10:52.974Z,21.25
2024-05-09T09:13:20.213Z,20.75
2024-05-09T09:15:50.860Z,21.98
2024-05-09T09:18:18.992Z,21.15
2024-05-09T09:20:46.735Z,20.02
2024-05-09T09:23:14.177Z,20.40
2024-05-09T09:25:41.282Z,21.60
2024-05-09T09:28:09.448Z,19.40
2024-05-09T09:30:40.957Z,18.02
2024-05-09T09:33:12.031Z,17.90
2024-05-09T09:35:40.740Z,15.10
2024-05-09T09:38:10.078Z,13.65
2024-05-09T09:40:45.098Z,15.20
2024-05-09T09:43:22.099Z,17.08
2024-05-09T09:45:52.917Z,17.03
2024-05-09T09:48:21.751Z,18.80
2024-05-09T09:50:51.448Z,18.52
2024-05-09T09:53:19.548Z,19.35
2024-05-09T09:55:46.830Z,19.98
2024-05-09T09:58:17.573Z,19.58
2024-05-09T10:00:45.276Z,17.92
2024-05-09T10:03:12.465Z,17.92
2024-05-09T10:05:42.186Z,20.20
2024-05-09T10:08:12.072Z,18.90
2024-05-09T10:10:39.225Z,18.10
2024-05-09T10:13:07.778Z,20.75
2024-05-09T10:15:54.520Z,19.73
2024-05-09T10:18:27.256Z,18.73
2024-05-09T10:20:56.430Z,18.40
2024-05-09T10:23:32.442Z,17.25
2024-05-09T10:26:02.748Z,17.58
2024-05-09T10:28:37.548Z,14.77
2024-05-09T10:31:15.789Z,16.15
2024-05-09T10:33:51.373Z,15.68
2024-05-09T10:36:20.979Z,14.32
2024-05-09T10:38:49.655Z,13.50
2024-05-09T10:41:17.612Z,9.55
2024-05-09T10:43:44.589Z,10.60
2024-05-09T10:46:12.424Z,9.80
2024-05-09T10:48:41.665Z,8.90
2024-05-09T10:51:09.407Z,10.73
2024-05-09T10:53:46.189Z,8.45
2024-05-09T10:56:17.391Z,9.65
2024-05-09T10:58:44.560Z,8.13
2024-05-09T11:01:13.285Z,10.00
2024-05-09T11:03:40.667Z,9.25
2024-05-09T11:06:09.775Z,9.90
2024-05-09T11:08:37.794Z,10.23
2024-05-09T11:11:07.773Z,9.80
2024-05-09T11:13:38.097Z,10.07
2024-05-09T11:16:15.835Z,10.73
2024-05-09T11:18:43.490Z,11.88
2024-05-09T11:21:14.105Z,10.65
2024-05-09T11:23:41.583Z,11.10
2024-05-09T11:26:09.138Z,11.48
2024-05-09T11:28:36.200Z,11.93
2024-05-09T11:31:10.508Z,9.65
2024-05-09T11:33:39.770Z,8.40
2024-05-09T11:36:08.000Z,10.45
2024-05-09T11:38:35.066Z,10.93
2024-05-09T11:41:03.192Z,9.93
2024-05-09T11:43:30.067Z,9.70
2024-05-09T11:46:01.059Z,11.02
2024-05-09T11:48:28.413Z,9.98
2024-05-09T11:50:56.986Z,9.00
2024-05-09T11:53:23.974Z,9.20
2024-05-09T11:55:50.787Z,8.57
2024-05-09T11:58:18.947Z,8.95
2024-05-09T12:00:46.984Z,8.60
2024-05-09T12:03:14.499Z,9.68
2024-05-09T12:05:41.745Z,9.43
2024-05-09T12:08:08.947Z,8.80
2024-05-09T12:10:36.879Z,9.65
2024-05-09T12:13:05.979Z,8.70
2024-05-09T12:15:37.282Z,8.73
2024-05-09T12:18:05.912Z,9.00
2024-05-09T12:20:37.591Z,8.98
2024-05-09T12:23:08.856Z,8.50
2024-05-09T12:25:37.230Z,7.38
2024-05-09T12:28:04.532Z,8.32
2024-05-09T12:30:36.931Z,7.75
2024-05-09T12:33:12.529Z,7.80
2024-05-09T12:35:41.764Z,8.60
2024-05-09T12:38:10.006Z,8.45
2024-05-09T12:40:38.939Z,7.30
2024-05-09T12:43:08.465Z,8.95
2024-05-09T12:45:36.587Z,8.57
2024-05-09T12:48:06.885Z,8.57
2024-05-09T12:50:34.761Z,8.57
2024-05-09T12:53:03.360Z,8.48
2024-05-09T12:55:40.255Z,7.07
2024-05-09T12:58:18.549Z,9.38
2024-05-09T13:00:46.409Z,8.00
2024-05-09T13:03:13.788Z,9.13
2024-05-09T13:05:46.934Z,8.98
2024-05-09T13:08:13.946Z,7.35
2024-05-09T13:10:41.282Z,8.50
2024-05-09T13:13:10.536Z,8.32
2024-05-09T13:15:37.964Z,8.43
2024-05-09T13:18:05.939Z,8.60
2024-05-09T13:20:35.470Z,9.13
2024-05-09T13:23:05.659Z,8.35
2024-05-09T13:25:34.904Z,9.90
2024-05-09T13:28:03.361Z,10.98
2024-05-09T13:30:38.827Z,12.18
2024-05-09T13:33:10.299Z,11.65
2024-05-09T13:35:38.043Z,14.00
2024-05-09T13:38:05.515Z,14.27
2024-05-09T13:40:35.125Z,13.60
2024-05-09T13:43:06.712Z,15.27
2024-05-09T13:45:34.387Z,13.15
2024-05-09T13:48:06.538Z,12.80
2024-05-09T13:50:36.172Z,12.77
2024-05-09T13:53:06.518Z,12.57
2024-05-09T13:55:35.354Z,14.25
2024-05-09T13:58:02.951Z,13.10
2024-05-09T14:02:59.775Z,13.95
2024-05-09T14:05:26.695Z,13.82
2024-05-09T14:07:53.588Z,13.57
2024-05-09T14:10:26.152Z,14.18
2024-05-09T14:12:57.638Z,13.95
2024-05-09T14:15:24.467Z,12.70
2024-05-09T14:17:51.460Z,13.57
2024-05-09T14:20:28.223Z,13.10
2024-05-09T14:22:58.816Z,12.57
2024-05-09T14:25:35.209Z,14.70
2024-05-09T14:28:04.071Z,13.50
2024-05-09T14:30:36.651Z,14.63
2024-05-09T14:33:06.500Z,11.95
2024-05-09T14:35:34.407Z,14.60
2024-05-09T14:38:01.459Z,13.82
2024-05-09T14:40:38.831Z,13.10
2024-05-09T14:43:14.752Z,13.20
2024-05-09T14:45:43.316Z,13.90
2024-05-09T14:48:11.844Z,12.93
2024-05-09T14:50:40.419Z,12.57
2024-05-09T14:53:12.511Z,13.23
2024-05-09T14:55:41.504Z,13.57
2024-05-09T14:58:10.558Z,13.23
2024-05-09T15:00:46.715Z,13.75
2024-05-09T15:03:19.417Z,14.80
2024-05-09T15:05:47.222Z,14.15
2024-05-09T15:08:14.135Z,14.23
2024-05-09T15:10:41.207Z,13.45
2024-05-09T15:13:09.844Z,13.23
2024-05-09T15:15:38.365Z,12.65
2024-05-09T15:18:06.313Z,15.32
2024-05-09T15:20:36.551Z,14.18
2024-05-09T15:23:06.728Z,13.23
2024-05-09T15:25:35.846Z,12.88
2024-05-09T15:28:03.933Z,12.13
2024-05-09T15:30:33.173Z,13.32
2024-05-09T15:33:03.836Z,12.70
2024-05-09T15:35:31.432Z,12.48
2024-05-09T15:37:58.375Z,12.05
2024-05-09T15:40:34.477Z,13.70
2024-05-09T15:43:06.892Z,14.57
2024-05-09T15:45:34.265Z,14.18
2024-05-09T15:48:02.457Z,14.23
2024-05-09T15:50:36.894Z,14.85
2024-05-09T15:53:08.312Z,16.05
2024-05-09T15:55:36.053Z,14.73
2024-05-09T15:58:04.379Z,13.90
2024-05-09T16:00:37.798Z,14.65
2024-05-09T16:03:13.104Z,14.73
2024-05-09T16:05:41.791Z,14.57
2024-05-09T16:08:09.249Z,15.10
2024-05-09T16:10:38.690Z,16.33
2024-05-09T16:13:06.157Z,13.65
2024-05-09T16:15:33.141Z,15.35
2024-05-09T16:18:01.021Z,12.98
2024-05-09T16:20:37.442Z,12.85
2024-05-09T16:23:08.152Z,11.40
2024-05-09T16:25:35.389Z,12.93
2024-05-09T16:28:07.045Z,12.25
2024-05-09T16:30:36.829Z,12.37
2024-05-09T16:33:05.208Z,11.10
2024-05-09T16:35:32.901Z,10.23
2024-05-09T16:38:02.589Z,11.68
2024-05-09T16:40:36.669Z,12.55
2024-05-09T16:43:07.425Z,11.68
2024-05-09T16:45:34.767Z,12.60
2024-05-09T16:48:02.081Z,10.80
2024-05-09T16:50:33.871Z,13.13
2024-05-09T16:53:04.381Z,11.63
2024-05-09T16:55:31.772Z,10.60
2024-05-09T16:57:58.874Z,11.63
2024-05-09T17:00:35.902Z,11.38
2024-05-09T17:03:10.050Z,10.60
2024-05-09T17:05:38.089Z,10.18
2024-05-09T17:08:06.103Z,33.60
2024-05-09T17:10:34.964Z,10.38
2024-05-09T17:13:04.613Z,9.52
2024-05-09T17:15:33.310Z,8.82
2024-05-09T17:18:01.396Z,8.77
2024-05-09T17:20:33.283Z,9.20
2024-05-09T17:23:04.417Z,8.27
2024-05-09T17:25:31.667Z,8.38
2024-05-09T17:28:05.313Z,8.57
2024-05-09T17:30:36.756Z,8.38
2024-05-09T17:33:07.207Z,8.63
2024-05-09T17:35:36.371Z,8.57
2024-05-09T17:38:06.913Z,9.23
2024-05-09T17:40:36.655Z,9.20
2024-05-09T17:43:07.680Z,8.43
2024-05-09T17:45:39.699Z,7.95
2024-05-09T17:48:09.415Z,7.55
2024-05-09T17:50:37.777Z,7.15
2024-05-09T17:53:06.177Z,7.47
2024-05-09T17:55:33.301Z,8.02
2024-05-09T17:58:00.711Z,7.15
2024-05-09T18:00:37.002Z,7.80
2024-05-09T18:03:08.408Z,7.45
2024-05-09T18:05:36.954Z,9.40
2024-05-09T18:08:08.342Z,8.30
2024-05-09T18:10:38.616Z,9.00
2024-05-09T18:13:09.691Z,7.63
2024-05-09T18:15:37.604Z,7.40
2024-05-09T18:18:05.999Z,8.02
2024-05-09T18:20:41.594Z,7.80
2024-05-09T18:23:16.764Z,8.63
2024-05-09T18:25:46.173Z,8.52
2024-05-09T18:28:13.566Z,9.48
2024-05-09T18:30:41.068Z,9.10
2024-05-09T18:33:10.699Z,8.90
2024-05-09T18:35:38.096Z,8.73
2024-05-09T18:38:05.468Z,9.55
2024-05-09T18:40:36.163Z,8.60
2024-05-09T18:43:07.736Z,8.95
2024-05-09T18:45:38.091Z,9.98
2024-05-09T18:48:07.399Z,10.10
2024-05-09T18:50:38.847Z,10.27
2024-05-09T18:53:12.818Z,10.45
2024-05-09T18:55:43.635Z,10.68
2024-05-09T18:58:10.887Z,10.80
2024-05-09T19:00:40.437Z,10.32
2024-05-09T19:03:12.627Z,12.00
2024-05-09T19:05:45.777Z,9.90
2024-05-09T19:08:14.402Z,10.98
2024-05-09T19:10:41.614Z,10.23
2024-05-09T19:13:12.048Z,10.50
2024-05-09T19:15:41.956Z,11.18
2024-05-09T19:18:10.477Z,10.98
2024-05-09T19:20:38.155Z,11.85
2024-05-09T19:23:06.844Z,14.05
2024-05-09T19:25:34.937Z,12.55
2024-05-09T19:28:03.030Z,12.95
2024-05-09T19:30:38.092Z,13.07
2024-05-09T19:33:10.816Z,13.23
2024-05-09T19:35:38.959Z,13.63
2024-05-09T19:38:06.097Z,13.95
2024-05-09T19:40:34.493Z,13.35
2024-05-09T19:43:03.255Z,13.80
2024-05-09T19:45:32.748Z,14.82
2024-05-09T19:48:00.107Z,13.02
2024-05-09T19:50:36.429Z,15.82
2024-05-09T19:53:08.706Z,14.68
2024-05-09T19:55:35.536Z,15.35
2024-05-09T19:58:05.354Z,15.55
2024-05-09T20:00:41.044Z,15.68
2024-05-09T20:03:11.867Z,15.63
2024-05-09T20:05:39.535Z,14.18
2024-05-09T20:08:07.213Z,15.80
2024-05-09T20:10:35.797Z,14.70
2024-05-09T20:13:06.252Z,15.57
2024-05-09T20:15:35.687Z,15.65
2024-05-09T20:18:03.011Z,15.07
2024-05-09T20:20:37.384Z,16.02
2024-05-09T20:23:08.865Z,14.90
2024-05-09T20:25:35.794Z,15.30
2024-05-09T20:28:03.090Z,16.08
2024-05-09T20:30:32.924Z,16.75
2024-05-09T20:33:07.327Z,15.82
2024-05-09T20:35:35.739Z,16.13
2024-05-09T20:38:03.601Z,16.15
2024-05-09T20:40:35.249Z,16.00
2024-05-09T20:43:08.426Z,15.88
2024-05-09T20:45:35.921Z,16.80
2024-05-09T20:48:03.274Z,17.05
2024-05-09T20:50:37.518Z,16.63
2024-05-09T20:53:11.093Z,15.32
2024-05-09T20:55:39.378Z,15.98
2024-05-09T20:58:06.226Z,16.13
2024-05-09T21:00:39.888Z,15.30
2024-05-09T21:03:10.296Z,15.65
2024-05-09T21:05:37.566Z,16.33
2024-05-09T21:08:04.872Z,15.85
2024-05-09T21:10:33.482Z,14.77
2024-05-09T21:13:03.114Z,15.18
2024-05-09T21:15:31.174Z,15.52
2024-05-09T21:17:58.490Z,14.80
2024-05-09T21:20:31.088Z,15.23
2024-05-09T21:23:00.337Z,15.07
2024-05-09T21:25:27.305Z,16.40
2024-05-09T21:27:54.326Z,15.52
2024-05-09T21:30:31.917Z,15.88
2024-05-09T21:33:10.111Z,15.52
2024-05-09T21:35:38.376Z,15.88
2024-05-09T21:38:05.726Z,14.93
2024-05-09T21:40:35.303Z,15.90
2024-05-09T21:43:04.898Z,14.65
2024-05-09T21:45:32.367Z,14.52
2024-05-09T21:47:59.563Z,14.82
2024-05-09T21:50:36.295Z,16.30
2024-05-09T21:53:07.397Z,14.55
2024-05-09T21:55:34.495Z,14.25
2024-05-09T21:58:01.659Z,14.68
2024-05-09T22:00:35.501Z,15.25
2024-05-09T22:03:06.338Z,14.85
2024-05-09T22:05:33.596Z,15.57
2024-05-09T22:08:00.877Z,14.43
2024-05-09T22:10:33.732Z,15.35
2024-05-09T22:13:03.571Z,14.35
2024-05-09T22:15:33.639Z,14.90
2024-05-09T22:18:00.962Z,15.23
2024-05-09T22:20:34.413Z,15.68
2024-05-09T22:23:05.133Z,15.70
2024-05-09T22:25:32.732Z,15.43
2024-05-09T22:28:01.871Z,15.77
2024-05-09T22:30:35.853Z,15.60
2024-05-09T22:33:11.064Z,16.15
2024-05-09T22:35:40.046Z,15.60
2024-05-09T22:38:07.063Z,16.65
2024-05-09T22:40:43.364Z,15.60
2024-05-09T22:43:23.324Z,16.95
2024-05-09T22:45:53.752Z,17.08
2024-05-09T22:48:21.238Z,16.85
2024-05-09T22:50:48.564Z,16.83
2024-05-09T22:53:15.509Z,18.67
2024-05-09T22:55:42.595Z,18.48
2024-05-09T22:58:09.571Z,19.23
2024-05-09T23:00:36.561Z,19.15
2024-05-09T23:03:03.712Z,19.15
2024-05-09T23:05:32.697Z,18.83
2024-05-09T23:08:02.038Z,18.10
2024-05-09T23:10:35.568Z,18.80
2024-05-09T23:13:06.175Z,19.75
2024-05-09T23:15:33.291Z,17.60
2024-05-09T23:18:00.364Z,19.25
2024-05-09T23:20:36.047Z,20.58
2024-05-09T23:23:07.081Z,18.05
2024-05-09T23:25:34.474Z,19.30
2024-05-09T23:28:01.979Z,20.83
2024-05-09T23:30:36.629Z,21.13
2024-05-09T23:33:07.214Z,20.02
2024-05-09T23:35:34.284Z,19.88
2024-05-09T23:38:01.151Z,21.73
2024-05-09T23:40:37.494Z,20.02
2024-05-09T23:43:11.875Z,19.48
2024-05-09T23:45:39.645Z,20.48
2024-05-09T23:48:07.459Z,21.85
2024-05-09T23:50:37.553Z,22.60
2024-05-09T23:53:07.810Z,24.63
2024-05-09T23:55:35.810Z,22.35
2024-05-09T23:58:02.747Z,22.13
